createdAt,value
2023-01-15T00:00:31.839Z,96
2023-01-15T00:01:31.781Z,96
2023-01-15T00:02:31.986Z,96
2023-01-15T00:03:31.845Z,96
2023-01-15T00:04:31.775Z,95
2023-01-15T00:05:31.728Z,95
2023-01-15T00:06:31.737Z,95
2023-01-15T00:07:31.795Z,95
2023-01-15T00:08:31.742Z,95
2023-01-15T00:09:31.743Z,95
2023-01-15T00:10:31.843Z,95
2023-01-15T00:11:31.777Z,95
2023-01-15T00:12:31.755Z,95
2023-01-15T00:13:31.721Z,95
2023-01-15T00:14:31.753Z,95
2023-01-15T00:15:31.777Z,95
2023-01-15T00:16:31.860Z,95
2023-01-15T00:17:31.804Z,95
2023-01-15T00:18:31.727Z,95
2023-01-15T00:19:31.755Z,96
2023-01-15T00:20:31.898Z,96
2023-01-15T00:21:31.758Z,96
2023-01-15T00:22:32.112Z,96
2023-01-15T00:23:31.784Z,96
2023-01-15T00:24:31.779Z,96
2023-01-15T00:25:31.737Z,96
2023-01-15T00:26:31.742Z,96
2023-01-15T00:27:31.798Z,96
2023-01-15T00:28:31.761Z,96
2023-01-15T00:29:31.739Z,96
2023-01-15T00:30:31.760Z,96
2023-01-15T00:31:31.806Z,96
2023-01-15T00:32:31.739Z,96
2023-01-15T00:33:31.721Z,96
2023-01-15T00:34:31.721Z,96
2023-01-15T00:35:31.773Z,96
2023-01-15T00:36:31.742Z,96
2023-01-15T00:37:31.758Z,96
2023-01-15T00:38:31.744Z,96
2023-01-15T00:39:31.778Z,96
2023-01-15T00:40:32.227Z,96
2023-01-15T00:41:31.742Z,96
2023-01-15T00:42:32.289Z,96
2023-01-15T00:43:31.757Z,96
2023-01-15T00:44:31.738Z,96
2023-01-15T00:45:31.732Z,97
2023-01-15T00:46:31.812Z,97
2023-01-15T00:47:31.742Z,97
2023-01-15T00:48:31.760Z,97
2023-01-15T00:49:31.739Z,97
2023-01-15T00:50:31.756Z,97
2023-01-15T00:51:31.745Z,97
2023-01-15T00:52:31.754Z,97
2023-01-15T00:53:31.754Z,97
2023-01-15T00:54:31.777Z,97
2023-01-15T00:55:31.733Z,97
2023-01-15T00:56:31.804Z,97
2023-01-15T00:57:31.740Z,97
2023-01-15T00:58:31.744Z,97
2023-01-15T00:59:31.737Z,97
2023-01-15T01:00:31.846Z,97
2023-01-15T01:01:31.971Z,97
2023-01-15T01:02:31.826Z,97
2023-01-15T01:03:31.722Z,96
2023-01-15T01:04:31.759Z,97
2023-01-15T01:05:31.731Z,97
2023-01-15T01:06:31.769Z,97
2023-01-15T01:07:31.735Z,97
2023-01-15T01:08:31.835Z,97
2023-01-15T01:09:31.739Z,97
2023-01-15T01:10:31.755Z,97
2023-01-15T01:11:31.713Z,97
2023-01-15T01:12:31.992Z,97
2023-01-15T01:13:31.722Z,97
2023-01-15T01:14:31.775Z,97
2023-01-15T01:15:31.749Z,97
2023-01-15T01:16:31.854Z,97
2023-01-15T01:17:31.713Z,97
2023-01-15T01:18:31.711Z,97
2023-01-15T01:19:31.718Z,97
2023-01-15T01:20:31.780Z,97
2023-01-15T01:21:31.739Z,97
2023-01-15T01:22:31.731Z,97
2023-01-15T01:23:31.722Z,96
2023-01-15T01:24:31.779Z,96
2023-01-15T01:25:31.735Z,96
2023-01-15T01:26:31.744Z,96
2023-01-15T01:27:31.746Z,96
2023-01-15T01:28:31.774Z,96
2023-01-15T01:29:31.726Z,96
2023-01-15T01:30:31.736Z,96
2023-01-15T01:31:31.761Z,96
2023-01-15T01:32:31.775Z,97
2023-01-15T01:33:31.737Z,97
2023-01-15T01:34:31.747Z,97
2023-01-15T01:35:31.723Z,97
2023-01-15T01:36:31.793Z,97
2023-01-15T01:37:31.743Z,97
2023-01-15T01:38:31.763Z,97
2023-01-15T01:39:31.710Z,97
2023-01-15T01:40:31.900Z,97
2023-01-15T01:41:31.871Z,97
2023-01-15T01:42:31.872Z,97
2023-01-15T01:43:31.872Z,97
2023-01-15T01:44:31.860Z,97
2023-01-15T01:45:31.993Z,97
2023-01-15T01:46:31.821Z,97
2023-01-15T01:47:31.887Z,97
2023-01-15T01:48:31.879Z,97
2023-01-15T01:49:31.902Z,97
2023-01-15T01:50:31.903Z,97
2023-01-15T01:51:31.905Z,97
2023-01-15T01:52:31.864Z,97
2023-01-15T01:53:31.852Z,98
2023-01-15T01:54:31.854Z,98
2023-01-15T01:55:31.753Z,98
2023-01-15T01:56:31.726Z,98
2023-01-15T01:57:31.753Z,98
2023-01-15T01:58:31.709Z,98
2023-01-15T01:59:31.733Z,98
2023-01-15T02:00:31.793Z,98
2023-01-15T02:01:31.872Z,98
2023-01-15T02:02:31.759Z,98
2023-01-15T02:03:31.783Z,98
2023-01-15T02:04:31.785Z,97
2023-01-15T02:05:31.802Z,98
2023-01-15T02:06:31.740Z,98
2023-01-15T02:07:31.746Z,97
2023-01-15T02:08:31.731Z,97
2023-01-15T02:09:31.728Z,98
2023-01-15T02:10:31.738Z,97
2023-01-15T02:11:31.737Z,97
2023-01-15T02:12:32.112Z,97
2023-01-15T02:13:31.726Z,97
2023-01-15T02:14:31.712Z,97
2023-01-15T02:15:31.759Z,97
2023-01-15T02:16:31.759Z,97
2023-01-15T02:17:31.729Z,97
2023-01-15T02:18:31.729Z,97
2023-01-15T02:19:31.817Z,97
2023-01-15T02:20:31.718Z,97
2023-01-15T02:21:31.731Z,97
2023-01-15T02:22:32.021Z,97
2023-01-15T02:23:31.779Z,97
2023-01-15T02:24:31.751Z,97
2023-01-15T02:25:31.733Z,97
2023-01-15T02:26:31.766Z,97
2023-01-15T02:27:31.763Z,97
2023-01-15T02:28:31.742Z,97
2023-01-15T02:29:31.735Z,97
2023-01-15T02:30:31.706Z,98
2023-01-15T02:31:31.930Z,98
2023-01-15T02:32:32.021Z,98
2023-01-15T02:33:31.731Z,98
2023-01-15T02:34:31.732Z,98
2023-01-15T02:35:31.732Z,98
2023-01-15T02:36:31.721Z,98
2023-01-15T02:37:31.728Z,98
2023-01-15T02:38:31.732Z,98
2023-01-15T02:39:31.748Z,98
2023-01-15T02:40:31.728Z,98
2023-01-15T02:41:31.753Z,98
2023-01-15T02:42:32.393Z,97
2023-01-15T02:43:31.739Z,97
2023-01-15T02:44:31.703Z,97
2023-01-15T02:45:31.757Z,97
2023-01-15T02:46:31.756Z,97
2023-01-15T02:47:31.757Z,97
2023-01-15T02:48:31.713Z,97
2023-01-15T02:49:31.777Z,97
2023-01-15T02:50:31.782Z,97
2023-01-15T02:51:31.791Z,98
2023-01-15T02:52:31.752Z,98
2023-01-15T02:53:31.752Z,98
2023-01-15T02:54:31.738Z,98
2023-01-15T02:55:31.976Z,98
2023-01-15T02:56:31.722Z,98
2023-01-15T02:57:31.727Z,98
2023-01-15T02:58:31.770Z,98
2023-01-15T02:59:31.737Z,98
2023-01-15T03:00:31.718Z,98
2023-01-15T03:01:31.907Z,98
2023-01-15T03:02:32.029Z,98
2023-01-15T03:03:31.711Z,98
2023-01-15T03:04:31.723Z,98
2023-01-15T03:05:31.724Z,98
2023-01-15T03:06:31.759Z,98
2023-01-15T03:07:31.747Z,98
2023-01-15T03:08:31.727Z,98
2023-01-15T03:09:31.793Z,98
2023-01-15T03:10:31.877Z,98
2023-01-15T03:11:31.849Z,98
2023-01-15T03:12:32.215Z,98
2023-01-15T03:13:31.707Z,98
2023-01-15T03:14:31.812Z,98
2023-01-15T03:15:31.767Z,98
2023-01-15T03:16:31.782Z,98
2023-01-15T03:17:31.711Z,98
2023-01-15T03:18:31.864Z,98
2023-01-15T03:19:31.881Z,98
2023-01-15T03:20:31.819Z,98
2023-01-15T03:21:31.846Z,98
2023-01-15T03:22:31.771Z,98
2023-01-15T03:23:31.928Z,98
2023-01-15T03:24:31.732Z,98
2023-01-15T03:25:31.709Z,98
2023-01-15T03:26:31.767Z,98
2023-01-15T03:27:31.760Z,98
2023-01-15T03:28:31.723Z,98
2023-01-15T03:29:31.896Z,98
2023-01-15T03:30:31.746Z,98
2023-01-15T03:31:31.733Z,98
2023-01-15T03:32:31.787Z,98
2023-01-15T03:33:31.908Z,98
2023-01-15T03:34:31.741Z,98
2023-01-15T03:35:31.912Z,98
2023-01-15T03:36:31.779Z,98
2023-01-15T03:37:31.729Z,98
2023-01-15T03:38:31.897Z,98
2023-01-15T03:39:31.733Z,98
2023-01-15T03:40:31.876Z,98
2023-01-15T03:41:31.773Z,98
2023-01-15T03:42:31.929Z,98
2023-01-15T03:43:31.893Z,98
2023-01-15T03:44:31.762Z,98
2023-01-15T03:45:31.888Z,98
2023-01-15T03:46:31.757Z,98
2023-01-15T03:47:31.789Z,98
2023-01-15T03:48:31.718Z,98
2023-01-15T03:49:31.735Z,98
2023-01-15T03:50:31.734Z,98
2023-01-15T03:51:31.826Z,98
2023-01-15T03:52:31.980Z,98
2023-01-15T03:53:31.739Z,98
2023-01-15T03:54:31.724Z,98
2023-01-15T03:55:31.762Z,98
2023-01-15T03:56:31.698Z,98
2023-01-15T03:57:31.787Z,98
2023-01-15T03:58:31.718Z,98
2023-01-15T03:59:31.818Z,98
2023-01-15T04:00:31.708Z,98
2023-01-15T04:01:31.894Z,98
2023-01-15T04:02:31.741Z,98
2023-01-15T04:03:31.727Z,98
2023-01-15T04:04:31.800Z,98
2023-01-15T04:05:31.765Z,98
2023-01-15T04:06:31.744Z,98
2023-01-15T04:07:31.725Z,98
2023-01-15T04:08:31.708Z,98
2023-01-15T04:09:31.789Z,98
2023-01-15T04:10:31.733Z,98
2023-01-15T04:11:32.761Z,98
2023-01-15T04:12:31.709Z,98
2023-01-15T04:13:31.864Z,98
2023-01-15T04:14:31.728Z,98
2023-01-15T04:15:31.859Z,98
2023-01-15T04:16:31.698Z,98
2023-01-15T04:17:31.729Z,98
2023-01-15T04:18:31.730Z,98
2023-01-15T04:19:31.713Z,98
2023-01-15T04:20:31.741Z,98
2023-01-15T04:21:31.742Z,98
2023-01-15T04:22:31.757Z,98
2023-01-15T04:23:31.691Z,98
2023-01-15T04:24:31.694Z,98
2023-01-15T04:25:31.720Z,98
2023-01-15T04:26:31.740Z,98
2023-01-15T04:27:31.740Z,98
2023-01-15T04:28:31.716Z,98
2023-01-15T04:29:31.749Z,98
2023-01-15T04:30:31.707Z,98
2023-01-15T04:31:31.744Z,98
2023-01-15T04:32:32.236Z,98
2023-01-15T04:33:31.818Z,98
2023-01-15T04:34:31.734Z,98
2023-01-15T04:35:31.812Z,98
2023-01-15T04:36:31.697Z,98
2023-01-15T04:37:31.722Z,98
2023-01-15T04:38:31.698Z,98
2023-01-15T04:39:31.709Z,98
2023-01-15T04:40:31.695Z,98
2023-01-15T04:41:31.736Z,99
2023-01-15T04:42:32.223Z,99
2023-01-15T04:43:31.697Z,99
2023-01-15T04:44:31.728Z,99
2023-01-15T04:45:31.684Z,99
2023-01-15T04:46:31.776Z,99
2023-01-15T04:47:31.712Z,99
2023-01-15T04:48:31.787Z,98
2023-01-15T04:49:31.711Z,99
2023-01-15T04:50:31.750Z,99
2023-01-15T04:51:31.732Z,98
2023-01-15T04:52:31.714Z,98
2023-01-15T04:53:31.716Z,98
2023-01-15T04:54:31.754Z,98
2023-01-15T04:55:31.700Z,98
2023-01-15T04:56:31.718Z,98
2023-01-15T04:57:31.703Z,98
2023-01-15T04:58:31.751Z,98
2023-01-15T04:59:31.845Z,99
2023-01-15T05:00:31.710Z,99
2023-01-15T05:01:31.777Z,98
2023-01-15T05:02:32.426Z,98
2023-01-15T05:03:31.697Z,98
2023-01-15T05:04:31.866Z,99
2023-01-15T05:05:31.731Z,99
2023-01-15T05:06:31.728Z,99
2023-01-15T05:07:31.723Z,99
2023-01-15T05:08:32.010Z,99
2023-01-15T05:09:31.767Z,99
2023-01-15T05:10:31.756Z,99
2023-01-15T05:11:31.707Z,99
2023-01-15T05:12:32.207Z,99
2023-01-15T05:13:31.705Z,99
2023-01-15T05:14:31.743Z,99
2023-01-15T05:15:31.782Z,99
2023-01-15T05:16:31.725Z,98
2023-01-15T05:17:31.765Z,98
2023-01-15T05:18:31.752Z,99
2023-01-15T05:19:31.714Z,98
2023-01-15T05:20:31.724Z,98
2023-01-15T05:21:31.728Z,98
2023-01-15T05:22:32.299Z,98
2023-01-15T05:23:31.666Z,98
2023-01-15T05:24:31.717Z,98
2023-01-15T05:25:31.722Z,98
2023-01-15T05:26:31.743Z,98
2023-01-15T05:27:31.696Z,98
2023-01-15T05:28:31.691Z,98
2023-01-15T05:29:31.718Z,98
2023-01-15T05:30:31.746Z,98
2023-01-15T05:31:31.692Z,98
2023-01-15T05:32:31.710Z,98
2023-01-15T05:33:31.706Z,98
2023-01-15T05:34:31.733Z,98
2023-01-15T05:35:31.696Z,98
2023-01-15T05:36:31.781Z,98
2023-01-15T05:37:31.713Z,98
2023-01-15T05:38:31.738Z,98
2023-01-15T05:39:31.690Z,97
2023-01-15T05:40:31.725Z,97
2023-01-15T05:41:31.697Z,97
2023-01-15T05:42:32.488Z,98
2023-01-15T05:43:31.707Z,97
2023-01-15T05:44:31.725Z,98
2023-01-15T05:45:31.749Z,98
2023-01-15T05:46:31.834Z,98
2023-01-15T05:47:31.730Z,97
2023-01-15T05:48:31.713Z,97
2023-01-15T05:49:31.728Z,97
2023-01-15T05:50:31.701Z,97
2023-01-15T05:51:31.733Z,97
2023-01-15T05:52:32.491Z,97
2023-01-15T05:53:31.728Z,97
2023-01-15T05:54:31.685Z,97
2023-01-15T05:55:31.742Z,97
2023-01-15T05:56:31.667Z,97
2023-01-15T05:57:31.720Z,97
2023-01-15T05:58:31.686Z,97
2023-01-15T05:59:31.732Z,97
2023-01-15T06:00:31.712Z,97
2023-01-15T06:01:31.754Z,97
2023-01-15T06:02:32.079Z,97
2023-01-15T06:03:31.910Z,97
2023-01-15T06:04:31.703Z,97
2023-01-15T06:05:31.808Z,97
2023-01-15T06:06:31.715Z,97
2023-01-15T06:07:31.723Z,97
2023-01-15T06:08:31.701Z,98
2023-01-15T06:09:31.735Z,98
2023-01-15T06:10:31.762Z,98
2023-01-15T06:11:31.728Z,98
2023-01-15T06:12:32.274Z,98
2023-01-15T06:13:31.689Z,98
2023-01-15T06:14:31.705Z,98
2023-01-15T06:15:31.734Z,98
2023-01-15T06:16:31.698Z,98
2023-01-15T06:17:31.758Z,98
2023-01-15T06:18:31.699Z,98
2023-01-15T06:19:31.723Z,98
2023-01-15T06:20:31.709Z,98
2023-01-15T06:21:31.730Z,97
2023-01-15T06:22:31.706Z,97
2023-01-15T06:23:31.801Z,97
2023-01-15T06:24:31.724Z,97
2023-01-15T06:25:31.965Z,97
2023-01-15T06:26:31.728Z,97
2023-01-15T06:27:31.752Z,97
2023-01-15T06:28:31.703Z,97
2023-01-15T06:29:31.726Z,97
2023-01-15T06:30:31.712Z,97
2023-01-15T06:31:31.841Z,97
2023-01-15T06:32:31.709Z,96
2023-01-15T06:33:31.719Z,96
2023-01-15T06:34:31.699Z,96
2023-01-15T06:35:31.727Z,96
2023-01-15T06:36:31.694Z,96
2023-01-15T06:37:31.707Z,96
2023-01-15T06:38:31.699Z,97
2023-01-15T06:39:31.711Z,96
2023-01-15T06:40:31.748Z,96
2023-01-15T06:41:31.713Z,96
2023-01-15T06:42:31.708Z,96
2023-01-15T06:43:31.709Z,96
2023-01-15T06:44:31.703Z,96
2023-01-15T06:45:31.719Z,96
2023-01-15T06:46:31.733Z,96
2023-01-15T06:47:31.704Z,96
2023-01-15T06:48:31.691Z,96
2023-01-15T06:49:31.706Z,96
2023-01-15T06:50:31.695Z,96
2023-01-15T06:51:31.709Z,96
2023-01-15T06:52:31.917Z,96
2023-01-15T06:53:31.702Z,96
2023-01-15T06:54:31.717Z,96
2023-01-15T06:55:31.698Z,96
2023-01-15T06:56:31.724Z,95
2023-01-15T06:57:31.688Z,95
2023-01-15T06:58:31.721Z,95
2023-01-15T06:59:31.695Z,95
2023-01-15T07:00:31.771Z,95
2023-01-15T07:01:31.744Z,95
2023-01-15T07:02:31.993Z,95
2023-01-15T07:03:31.765Z,95
2023-01-15T07:04:31.727Z,95
2023-01-15T07:05:31.678Z,95
2023-01-15T07:06:31.707Z,94
2023-01-15T07:07:31.797Z,94
2023-01-15T07:08:31.730Z,94
2023-01-15T07:09:31.835Z,94
2023-01-15T07:10:31.702Z,94
2023-01-15T07:11:31.694Z,94
2023-01-15T07:12:32.113Z,94
2023-01-15T07:13:31.686Z,94
2023-01-15T07:14:31.684Z,94
2023-01-15T07:15:31.698Z,94
2023-01-15T07:16:31.759Z,94
2023-01-15T07:17:31.690Z,93
2023-01-15T07:18:31.718Z,93
2023-01-15T07:19:31.699Z,94
2023-01-15T07:20:31.790Z,94
2023-01-15T07:21:31.706Z,94
2023-01-15T07:22:31.988Z,94
2023-01-15T07:23:31.700Z,94
2023-01-15T07:24:31.722Z,94
2023-01-15T07:25:31.710Z,94
2023-01-15T07:26:31.723Z,94
2023-01-15T07:27:31.693Z,94
2023-01-15T07:28:31.715Z,94
2023-01-15T07:29:31.831Z,93
2023-01-15T07:30:31.690Z,93
2023-01-15T07:31:31.724Z,93
2023-01-15T07:32:32.091Z,93
2023-01-15T07:33:31.726Z,93
2023-01-15T07:34:31.685Z,93
2023-01-15T07:35:31.681Z,92
2023-01-15T07:36:31.753Z,93
2023-01-15T07:37:31.672Z,93
2023-01-15T07:38:31.732Z,93
2023-01-15T07:39:31.828Z,93
2023-01-15T07:40:31.741Z,93
2023-01-15T07:41:31.666Z,93
2023-01-15T07:42:32.075Z,93
2023-01-15T07:43:31.732Z,93
2023-01-15T07:44:31.696Z,93
2023-01-15T07:45:31.696Z,93
2023-01-15T07:46:31.677Z,93
2023-01-15T07:47:31.727Z,93
2023-01-15T07:48:31.699Z,93
2023-01-15T07:49:31.681Z,93
2023-01-15T07:50:31.710Z,93
2023-01-15T07:51:32.670Z,93
2023-01-15T07:52:38.154Z,92
2023-01-15T07:53:42.060Z,92
2023-01-15T07:54:46.094Z,92
2023-01-15T07:55:50.190Z,92
2023-01-15T07:56:54.053Z,92
2023-01-15T07:57:58.068Z,92
2023-01-15T07:59:02.098Z,93
2023-01-15T08:00:06.933Z,93
2023-01-15T08:01:10.231Z,93
2023-01-15T08:02:14.038Z,92
2023-01-15T08:03:18.079Z,92
2023-01-15T08:04:22.073Z,93
2023-01-15T08:05:26.057Z,92
2023-01-15T08:06:30.060Z,92
2023-01-15T08:07:31.702Z,93
2023-01-15T08:08:31.695Z,92
2023-01-15T08:09:31.720Z,92
2023-01-15T08:10:31.688Z,92
2023-01-15T08:11:31.710Z,91
2023-01-15T08:12:31.722Z,91
2023-01-15T08:13:31.697Z,91
2023-01-15T08:14:31.666Z,91
2023-01-15T08:15:31.724Z,92
2023-01-15T08:16:31.796Z,91
2023-01-15T08:17:31.709Z,92
2023-01-15T08:18:31.704Z,92
2023-01-15T08:19:31.741Z,92
2023-01-15T08:20:31.767Z,92
2023-01-15T08:21:31.714Z,92
2023-01-15T08:22:31.726Z,92
2023-01-15T08:23:31.722Z,92
2023-01-15T08:24:31.704Z,92
2023-01-15T08:25:31.721Z,92
2023-01-15T08:26:31.673Z,92
2023-01-15T08:27:33.431Z,92
2023-01-15T08:28:31.750Z,92
2023-01-15T08:29:31.779Z,92
2023-01-15T08:30:31.834Z,92
2023-01-15T08:31:31.819Z,92
2023-01-15T08:32:31.715Z,92
2023-01-15T08:33:31.674Z,92
2023-01-15T08:34:31.716Z,93
2023-01-15T08:35:31.734Z,92
2023-01-15T08:36:31.692Z,92
2023-01-15T08:37:31.673Z,92
2023-01-15T08:38:31.700Z,93
2023-01-15T08:39:31.786Z,93
2023-01-15T08:40:31.703Z,93
2023-01-15T08:41:31.669Z,93
2023-01-15T08:42:32.522Z,93
2023-01-15T08:43:31.698Z,93
2023-01-15T08:44:31.688Z,93
2023-01-15T08:45:31.745Z,93
2023-01-15T08:46:31.680Z,93
2023-01-15T08:47:31.673Z,93
2023-01-15T08:48:31.699Z,94
2023-01-15T08:49:31.712Z,94
2023-01-15T08:50:31.734Z,94
2023-01-15T08:51:31.688Z,94
2023-01-15T08:52:32.497Z,94
2023-01-15T08:53:31.744Z,94
2023-01-15T08:54:31.701Z,94
2023-01-15T08:55:31.688Z,94
2023-01-15T08:56:31.687Z,94
2023-01-15T08:57:31.736Z,94
2023-01-15T08:58:31.708Z,94
2023-01-15T08:59:31.699Z,94
2023-01-15T09:00:31.704Z,94
2023-01-15T09:01:31.851Z,94
2023-01-15T09:02:32.373Z,93
2023-01-15T09:03:31.679Z,93
2023-01-15T09:04:31.727Z,93
2023-01-15T09:05:31.710Z,93
2023-01-15T09:06:31.691Z,93
2023-01-15T09:07:31.752Z,93
2023-01-15T09:08:31.686Z,93
2023-01-15T09:09:31.705Z,93
2023-01-15T09:10:31.686Z,93
2023-01-15T09:11:31.686Z,93
2023-01-15T09:12:31.667Z,93
2023-01-15T09:13:31.733Z,93
2023-01-15T09:14:55.342Z,93
2023-01-15T09:15:31.788Z,93
2023-01-15T09:16:31.754Z,93
2023-01-15T09:17:31.749Z,93
2023-01-15T09:18:31.718Z,93
2023-01-15T09:19:31.694Z,93
2023-01-15T09:20:34.027Z,93
2023-01-15T09:21:31.707Z,93
2023-01-15T09:22:32.274Z,93
2023-01-15T09:23:31.699Z,93
2023-01-15T09:24:31.682Z,93
2023-01-15T09:25:31.718Z,93
2023-01-15T09:26:31.701Z,93
2023-01-15T09:27:31.713Z,93
2023-01-15T09:28:31.675Z,93
2023-01-15T09:29:31.671Z,93
2023-01-15T09:30:31.869Z,93
2023-01-15T09:31:31.663Z,93
2023-01-15T09:32:33.164Z,93
2023-01-15T09:33:31.724Z,93
2023-01-15T09:34:31.782Z,93
2023-01-15T09:35:31.681Z,93
2023-01-15T09:36:31.718Z,93
2023-01-15T09:37:31.709Z,93
2023-01-15T09:38:31.692Z,93
2023-01-15T09:39:31.664Z,93
2023-01-15T09:40:31.669Z,93
2023-01-15T09:41:31.706Z,93
2023-01-15T09:42:31.715Z,92
2023-01-15T09:43:31.695Z,92
2023-01-15T09:44:31.702Z,92
2023-01-15T09:45:31.737Z,92
2023-01-15T09:46:31.711Z,92
2023-01-15T09:47:31.693Z,93
2023-01-15T09:48:31.706Z,93
2023-01-15T09:49:31.691Z,93
2023-01-15T09:50:31.674Z,93
2023-01-15T09:51:31.676Z,93
2023-01-15T09:52:31.693Z,93
2023-01-15T09:53:31.743Z,93
2023-01-15T09:54:31.698Z,92
2023-01-15T09:55:31.697Z,93
2023-01-15T09:56:31.709Z,93
2023-01-15T09:57:31.655Z,93
2023-01-15T09:58:31.671Z,93
2023-01-15T09:59:33.136Z,93
2023-01-15T10:00:31.704Z,93
2023-01-15T10:01:31.699Z,93
2023-01-15T10:02:32.070Z,93
2023-01-15T10:03:31.798Z,93
2023-01-15T10:04:31.761Z,93
2023-01-15T10:05:31.655Z,93
2023-01-15T10:06:31.664Z,93
2023-01-15T10:07:31.678Z,93
2023-01-15T10:08:31.699Z,93
2023-01-15T10:09:31.691Z,93
2023-01-15T10:10:31.673Z,93
2023-01-15T10:11:31.677Z,93
2023-01-15T10:12:32.050Z,93
2023-01-15T10:13:31.715Z,93
2023-01-15T10:14:31.663Z,93
2023-01-15T10:15:31.708Z,93
2023-01-15T10:16:31.742Z,93
2023-01-15T10:17:31.689Z,93
2023-01-15T10:18:31.660Z,93
2023-01-15T10:19:43.993Z,93
2023-01-15T10:20:31.750Z,93
2023-01-15T10:21:31.691Z,93
2023-01-15T10:22:31.753Z,93
2023-01-15T10:23:31.715Z,92
2023-01-15T10:24:31.735Z,92
2023-01-15T10:25:31.670Z,92
2023-01-15T10:26:31.659Z,92
2023-01-15T10:27:31.679Z,93
2023-01-15T10:28:31.713Z,92
2023-01-15T10:29:31.739Z,92
2023-01-15T10:30:31.709Z,92
2023-01-15T10:31:31.708Z,92
2023-01-15T10:32:31.705Z,92
2023-01-15T10:33:31.679Z,92
2023-01-15T10:34:31.648Z,92
2023-01-15T10:35:31.707Z,92
2023-01-15T10:36:31.689Z,92
2023-01-15T10:37:31.655Z,92
2023-01-15T10:38:31.808Z,92
2023-01-15T10:39:31.691Z,92
2023-01-15T10:40:31.696Z,92
2023-01-15T10:41:31.701Z,92
2023-01-15T10:42:32.409Z,92
2023-01-15T10:43:31.744Z,92
2023-01-15T10:44:31.765Z,92
2023-01-15T10:45:31.784Z,92
2023-01-15T10:46:31.801Z,91
2023-01-15T10:47:31.779Z,91
2023-01-15T10:48:31.654Z,92
2023-01-15T10:49:31.698Z,92
2023-01-15T10:50:31.686Z,92
2023-01-15T10:51:31.697Z,92
2023-01-15T10:52:31.696Z,92
2023-01-15T10:53:31.729Z,92
2023-01-15T10:54:31.699Z,91
2023-01-15T10:55:31.681Z,91
2023-01-15T10:56:31.676Z,91
2023-01-15T10:57:31.688Z,91
2023-01-15T10:58:31.749Z,91
2023-01-15T10:59:31.679Z,91
2023-01-15T11:00:31.666Z,91
2023-01-15T11:01:31.889Z,91
2023-01-15T11:02:32.218Z,91
2023-01-15T11:03:31.665Z,91
2023-01-15T11:04:31.660Z,91
2023-01-15T11:05:31.690Z,90
2023-01-15T11:06:31.680Z,90
2023-01-15T11:07:31.693Z,90
2023-01-15T11:09:06.663Z,90
2023-01-15T11:09:31.742Z,90
2023-01-15T11:10:31.697Z,91
2023-01-15T11:11:31.692Z,91
2023-01-15T11:12:31.796Z,91
2023-01-15T11:13:31.661Z,91
2023-01-15T11:14:31.710Z,91
2023-01-15T11:15:31.730Z,91
2023-01-15T11:16:31.663Z,91
2023-01-15T11:17:31.686Z,90
2023-01-15T11:18:31.713Z,90
2023-01-15T11:19:31.657Z,90
2023-01-15T11:20:31.687Z,90
2023-01-15T11:21:31.672Z,90
2023-01-15T11:22:31.715Z,90
2023-01-15T11:23:31.705Z,90
2023-01-15T11:24:31.668Z,89
2023-01-15T11:25:31.707Z,89
2023-01-15T11:26:31.713Z,89
2023-01-15T11:27:31.697Z,89
2023-01-15T11:28:31.678Z,89
2023-01-15T11:29:31.660Z,89
2023-01-15T11:30:31.705Z,89
2023-01-15T11:31:31.756Z,89
2023-01-15T11:32:32.053Z,89
2023-01-15T11:33:31.661Z,89
2023-01-15T11:34:31.712Z,89
2023-01-15T11:35:31.672Z,89
2023-01-15T11:36:31.654Z,89
2023-01-15T11:37:31.667Z,89
2023-01-15T11:38:31.702Z,89
2023-01-15T11:39:31.755Z,89
2023-01-15T11:40:31.737Z,89
2023-01-15T11:41:31.665Z,89
2023-01-15T11:42:31.914Z,89
2023-01-15T11:43:31.739Z,89
2023-01-15T11:44:31.649Z,89
2023-01-15T11:45:31.665Z,89
2023-01-15T11:46:31.770Z,88
2023-01-15T11:47:31.686Z,88
2023-01-15T11:48:31.676Z,88
2023-01-15T11:49:31.670Z,88
2023-01-15T11:50:31.686Z,88
2023-01-15T11:51:31.655Z,88
2023-01-15T11:52:31.690Z,88
2023-01-15T11:53:31.724Z,88
2023-01-15T11:54:31.686Z,88
2023-01-15T11:55:31.660Z,88
2023-01-15T11:56:31.689Z,88
2023-01-15T11:57:31.711Z,88
2023-01-15T11:58:31.692Z,87
2023-01-15T11:59:31.665Z,88
2023-01-15T12:00:31.695Z,87
2023-01-15T12:01:31.797Z,88
2023-01-15T12:02:31.726Z,87
2023-01-15T12:03:31.720Z,87
2023-01-15T12:04:31.760Z,87
2023-01-15T12:05:31.667Z,87
2023-01-15T12:06:31.694Z,87
2023-01-15T12:07:31.638Z,87
2023-01-15T12:08:31.745Z,87
2023-01-15T12:09:31.646Z,87
2023-01-15T12:10:31.713Z,87
2023-01-15T12:11:31.687Z,88
2023-01-15T12:12:32.293Z,88
2023-01-15T12:13:31.682Z,87
2023-01-15T12:14:31.705Z,87
2023-01-15T12:15:31.669Z,87
2023-01-15T12:16:31.724Z,87
2023-01-15T12:17:31.690Z,87
2023-01-15T12:18:31.698Z,88
2023-01-15T12:19:31.721Z,87
2023-01-15T12:20:31.760Z,87
2023-01-15T12:21:31.676Z,87
2023-01-15T12:22:31.686Z,87
2023-01-15T12:23:31.669Z,87
2023-01-15T12:24:31.664Z,87
2023-01-15T12:25:31.692Z,87
2023-01-15T12:26:31.862Z,87
2023-01-15T12:27:31.656Z,87
2023-01-15T12:28:31.669Z,87
2023-01-15T12:29:31.715Z,87
2023-01-15T12:30:31.706Z,87
2023-01-15T12:31:31.728Z,87
2023-01-15T12:32:31.666Z,88
2023-01-15T12:33:31.687Z,88
2023-01-15T12:34:31.672Z,88
2023-01-15T12:35:31.700Z,88
2023-01-15T12:36:31.764Z,88
2023-01-15T12:37:31.717Z,88
2023-01-15T12:38:31.676Z,88
2023-01-15T12:39:31.680Z,88
2023-01-15T12:40:31.672Z,88
2023-01-15T12:41:31.680Z,88
2023-01-15T12:42:32.373Z,89
2023-01-15T12:43:31.666Z,89
2023-01-15T12:44:31.658Z,89
2023-01-15T12:45:31.643Z,89
2023-01-15T12:46:31.841Z,89
2023-01-15T12:47:31.675Z,89
2023-01-15T12:48:31.643Z,89
2023-01-15T12:49:31.721Z,88
2023-01-15T12:50:31.652Z,88
2023-01-15T12:51:31.656Z,88
2023-01-15T12:52:31.918Z,88
2023-01-15T12:53:31.706Z,88
2023-01-15T12:54:31.661Z,88
2023-01-15T12:55:31.682Z,88
2023-01-15T12:56:31.716Z,88
2023-01-15T12:57:31.698Z,88
2023-01-15T12:58:31.651Z,88
2023-01-15T12:59:31.795Z,88
2023-01-15T13:00:31.707Z,87
2023-01-15T13:01:31.744Z,87
2023-01-15T13:02:31.713Z,86
2023-01-15T13:03:31.697Z,87
2023-01-15T13:04:31.665Z,87
2023-01-15T13:05:31.718Z,87
2023-01-15T13:06:31.658Z,87
2023-01-15T13:07:31.741Z,87
2023-01-15T13:08:31.662Z,87
2023-01-15T13:09:31.712Z,87
2023-01-15T13:10:31.634Z,87
2023-01-15T13:11:31.756Z,86
2023-01-15T13:12:31.652Z,86
2023-01-15T13:13:31.700Z,87
2023-01-15T13:14:31.717Z,86
2023-01-15T13:15:31.664Z,86
2023-01-15T13:16:31.818Z,86
2023-01-15T13:17:31.681Z,86
2023-01-15T13:18:31.649Z,87
2023-01-15T13:19:31.681Z,87
2023-01-15T13:20:31.802Z,87
2023-01-15T13:21:31.692Z,86
2023-01-15T13:22:31.900Z,87
2023-01-15T13:23:31.672Z,87
2023-01-15T13:24:31.662Z,87
2023-01-15T13:25:31.705Z,87
2023-01-15T13:26:31.653Z,86
2023-01-15T13:27:31.777Z,86
2023-01-15T13:28:31.700Z,86
2023-01-15T13:29:31.750Z,86
2023-01-15T13:30:31.753Z,86
2023-01-15T13:31:31.750Z,86
2023-01-15T13:32:31.685Z,86
2023-01-15T13:33:31.683Z,86
2023-01-15T13:34:31.665Z,86
2023-01-15T13:35:31.695Z,86
2023-01-15T13:36:31.701Z,86
2023-01-15T13:37:31.711Z,86
2023-01-15T13:38:31.653Z,86
2023-01-15T13:39:31.670Z,86
2023-01-15T13:40:31.638Z,86
2023-01-15T13:41:31.690Z,86
2023-01-15T13:42:31.630Z,86
2023-01-15T13:43:31.679Z,86
2023-01-15T13:44:31.651Z,86
2023-01-15T13:45:31.686Z,87
2023-01-15T13:46:31.668Z,87
2023-01-15T13:47:31.647Z,87
2023-01-15T13:48:31.676Z,87
2023-01-15T13:49:31.662Z,87
2023-01-15T13:50:31.708Z,87
2023-01-15T13:51:31.673Z,87
2023-01-15T13:52:31.660Z,87
2023-01-15T13:53:31.683Z,87
2023-01-15T13:54:31.657Z,87
2023-01-15T13:55:31.708Z,87
2023-01-15T13:56:31.653Z,88
2023-01-15T13:57:31.698Z,88
2023-01-15T13:58:31.682Z,88
2023-01-15T13:59:31.671Z,88
2023-01-15T14:00:31.645Z,88
2023-01-15T14:01:31.778Z,88
2023-01-15T14:02:31.707Z,88
2023-01-15T14:03:31.719Z,88
2023-01-15T14:04:31.646Z,88
2023-01-15T14:05:31.675Z,88
2023-01-15T14:06:31.703Z,88
2023-01-15T14:07:31.660Z,88
2023-01-15T14:08:31.650Z,88
2023-01-15T14:09:31.664Z,88
2023-01-15T14:10:31.688Z,88
2023-01-15T14:11:31.648Z,88
2023-01-15T14:12:31.645Z,88
2023-01-15T14:13:31.638Z,88
2023-01-15T14:14:31.677Z,88
2023-01-15T14:15:31.651Z,88
2023-01-15T14:16:31.774Z,88